• Join FlightAware (Why Join?)
  • Login
  • US Flag 
11:55PM EDT


 

Airport Tracker/Info


-or-


 

Live Flight TrackerFlight Track Log ✈ THY2229 ✈ 11-May-2013 ✈ LTAJ / GZT - LTBA / IST

Flight Track Log - Related Links

Times and Time Zones

All times are in EDT time to prevent confusion due to time zone crossing. See the THY2229 flight status page for this flight to view local times or setup timezone preferences in your user account.

Time Position Orientation Groundspeed Altitude Reporting Facility
EDT Latitude Longitude Course Direction KTS MPH feet Rate Location/Type
04:58PM 37.2239 36.9531 304° West  Level Estimated
04:59PM 37.2789 36.8475 303° West  Level Estimated
05:00PM 37.3339 36.7418 303° West  Level Estimated
05:01PM 37.3887 36.6359 303° West  Level Estimated
05:02PM 37.4435 36.5299 303° West  Level Estimated
05:03PM 37.4982 36.4237 303° West  Level Estimated
05:04PM 37.5527 36.3174 303° West  Level Estimated
05:05PM 37.6072 36.2109 303° West  Level Estimated
05:06PM 37.6616 36.1042 303° West  Level Estimated
05:07PM 37.7159 35.9974 303° West  Level Estimated
05:08PM 37.7701 35.8904 303° West  Level Estimated
05:09PM 37.8242 35.7833 303° West  Level Estimated
05:10PM 37.8782 35.6760 303° West  Level Estimated
05:11PM 37.9321 35.5686 302° West  Level Estimated
05:12PM 37.9859 35.4609 302° West  Level Estimated
05:13PM 38.0396 35.3532 302° West  Level Estimated
05:14PM 38.0932 35.2453 302° West  Level Estimated
05:15PM 38.1468 35.1372 302° West  Level Estimated
05:16PM 38.2002 35.0290 302° West  Level Estimated
05:17PM 38.2535 34.9206 302° West  Level Estimated
05:18PM 38.3067 34.8120 302° West  Level Estimated
05:19PM 38.3598 34.7033 302° West  Level Estimated
05:20PM 38.4128 34.5945 302° West  Level Estimated
05:21PM 38.4657 34.4854 302° West  Level Estimated
05:22PM 38.5185 34.3762 302° West  Level Estimated
05:23PM 38.5712 34.2669 302° West  Level Estimated
05:24PM 38.6238 34.1574 302° West  Level Estimated
05:25PM 38.6763 34.0477 302° West  Level Estimated
05:26PM 38.7287 33.9379 301° West  Level Estimated
05:27PM 38.7810 33.8279 301° West  Level Estimated
05:28PM 38.8332 33.7177 301° West  Level Estimated
05:29PM 38.8853 33.6074 301° West  Level Estimated
05:30PM 38.9373 33.4969 301° West  Level Estimated
05:31PM 38.9892 33.3863 301° West  Level Estimated
05:32PM 39.0410 33.2755 301° West  Level Estimated
05:33PM 39.0927 33.1645 301° West  Level Estimated
05:34PM 39.1442 33.0534 301° West  Level Estimated
05:35PM 39.1957 32.9421 301° West  Level Estimated
05:36PM 39.2470 32.8307 301° West  Level Estimated
05:37PM 39.2983 32.7190 301° West  Level Estimated
05:38PM 39.3494 32.6073 301° West  Level Estimated
05:39PM 39.4005 32.4953 301° West  Level Estimated
05:40PM 39.4514 32.3832 300° West  Level Estimated
05:41PM 39.5022 32.2709 300° West  Level Estimated
05:42PM 39.5529 32.1585 300° West  Level Estimated
05:43PM 39.6035 32.0459 300° West  Level Estimated
05:44PM 39.6540 31.9331 300° West  Level Estimated
05:45PM 39.7044 31.8202 300° West  Level Estimated
05:46PM 39.7547 31.7071 300° West  Level Estimated
05:47PM 39.8049 31.5939 300° West  Level Estimated
05:48PM 39.8549 31.4804 300° West  Level Estimated
05:49PM 39.9049 31.3669 300° West  Level Estimated
05:50PM 39.9547 31.2531 300° West  Level Estimated
05:51PM 40.0045 31.1392 300° West  Level Estimated
05:52PM 40.0541 31.0251 300° West  Level Estimated
05:53PM 40.1036 30.9109 300° West  Level Estimated
05:54PM 40.1530 30.7964 299° West  Level Estimated
05:55PM 40.2022 30.6819 299° West  Level Estimated
05:56PM 40.2514 30.5671 299° West  Level Estimated
05:57PM 40.3004 30.4522 299° West  Level Estimated
05:58PM 40.3494 30.3371 299° West  Level Estimated
05:59PM 40.3982 30.2218 299° West  Level Estimated
06:00PM 40.4469 30.1064 299° West  Level Estimated
06:01PM 40.4955 29.9908 299° West  Level Estimated
06:02PM 40.5440 29.8751 299° West  Level Estimated
06:03PM 40.5923 29.7592 299° West  Level Estimated
06:04PM 40.6406 29.6431 299° West  Level Estimated
06:05PM 40.6887 29.5268 299° West  Level Estimated
06:06PM 40.7367 29.4104 299° West  Level Estimated
06:07PM 40.7846 29.2938 299° West  Level Estimated
06:08PM 40.8324 29.1771 298° West  Level Estimated
06:09PM 40.8801 29.0601 298° West  Level Estimated
06:10PM 40.9276 28.9430 298° West  Level Estimated
06:11PM 40.9750 28.8258 298° West  Level Estimated
06:12PM 40.9769 28.8211 298° West  Level Estimated
06:13PM 40.9769 28.8211 21° North  Level Estimated
06:14PM 40.9769 28.8211 21° North  Level Estimated
06:15PM 40.9769 28.8211 21° North  Level Estimated
06:16PM 40.9769 28.8211 21° North  Level Estimated
06:17PM 40.9769 28.8211 21° North  Level Estimated
06:18PM 40.9769 28.8211 21° North  Level Estimated
06:19PM 40.9769 28.8211 21° North  Level Estimated
06:20PM 40.9769 28.8211 21° North  Level Estimated
06:21PM 40.9769 28.8211 21° North  Level Estimated
06:22PM 40.9769 28.8211 21° North  Level Estimated
06:23PM 40.9769 28.8211 21° North  Level Estimated
06:24PM 40.9769 28.8211 21° North  Level Estimated
06:25PM 40.9769 28.8211 21° North  Level Estimated
06:26PM 40.9769 28.8211 21° North  Level Estimated
06:27PM 40.9769 28.8211 21° North  Level Estimated